Time,TemperatureF,DewpointF,PressureIn,WindDirection,WindDirectionDegrees,WindSpeedMPH,WindSpeedGustMPH,Humidity,HourlyPrecipIn,Conditions,Clouds,dailyrainin,SolarRadiationWatts/m^2,SoftwareType,DateUTC
2016-09-30 00:02:00,56.7,48.6,30.40,NE,54,3.6,4.9,74,0.00,,,0.00,0.00,Weather logger V3.0.,2016-09-30 04:02:00,
2016-09-30 00:07:00,56.5,48.7,30.39,NE,37,0.9,4.9,75,0.00,,,0.00,0.00,Weather logger V3.0.,2016-09-30 04:07:00,
2016-09-30 00:13:00,56.3,48.6,30.39,NE,56,0.0,0.0,75,0.00,,,0.00,0.00,Weather logger V3.0.,2016-09-30 04:13:00,
2016-09-30 00:18:00,56.1,48.4,30.39,North,359,0.0,0.0,75,0.00,,,0.00,0.00,Weather logger V3.0.,2016-09-30 04:18:00,
2016-09-30 00:23:00,56.1,48.4,30.39,NNE,30,0.0,0.0,75,0.00,,,0.00,0.00,Weather logger V3.0.,2016-09-30 04:23:00,
2016-09-30 00:28:00,55.9,48.2,30.39,NNW,337,0.0,0.0,75,0.00,,,0.00,0.00,Weather logger V3.0.,2016-09-30 04:28:00,
2016-09-30 00:33:00,55.9,48.2,30.39,North,11,0.0,0.0,75,0.00,,,0.00,0.00,Weather logger V3.0.,2016-09-30 04:33:00,
2016-09-30 00:38:00,55.8,48.0,30.39,NE,52,4.9,4.9,75,0.00,,,0.00,0.00,Weather logger V3.0.,2016-09-30 04:38:00,
2016-09-30 00:43:00,55.8,47.7,30.39,ESE,110,2.2,4.9,74,0.00,,,0.00,0.00,Weather logger V3.0.,2016-09-30 04:43:00,
2016-09-30 00:48:00,55.6,47.1,30.39,ENE,76,5.4,14.8,73,0.00,,,0.00,0.00,Weather logger V3.0.,2016-09-30 04:48:00,
2016-09-30 00:53:00,55.6,47.5,30.39,East,91,0.4,4.9,74,0.00,,,0.00,0.00,Weather logger V3.0.,2016-09-30 04:53:00,
2016-09-30 00:58:00,55.4,46.9,30.39,ENE,69,2.2,4.9,73,0.00,,,0.00,0.00,Weather logger V3.0.,2016-09-30 04:58:00,
2016-09-30 01:03:00,55.4,46.9,30.39,NNE,20,0.0,0.0,73,0.00,,,0.00,0.00,Weather logger V3.0.,2016-09-30 05:03:00,
2016-09-30 01:08:00,55.4,46.9,30.39,NE,45,0.9,4.9,73,0.00,,,0.00,0.00,Weather logger V3.0.,2016-09-30 05:08:00,
2016-09-30 01:13:00,55.4,47.3,30.39,ENE,69,1.8,4.9,74,0.00,,,0.00,0.00,Weather logger V3.0.,2016-09-30 05:13:00,
2016-09-30 01:18:00,55.4,47.3,30.39,ESE,111,5.4,9.8,74,0.00,,,0.00,0.00,Weather logger V3.0.,2016-09-30 05:18:00,
2016-09-30 01:23:00,55.2,46.8,30.39,NE,34,0.9,4.9,73,0.00,,,0.00,0.00,Weather logger V3.0.,2016-09-30 05:23:00,
2016-09-30 01:29:00,55.2,47.1,30.39,East,88,7.2,9.8,74,0.00,,,0.00,0.00,Weather logger V3.0.,2016-09-30 05:29:00,
2016-09-30 01:34:00,55.0,46.9,30.39,ENE,67,2.7,4.9,74,0.00,,,0.00,0.00,Weather logger V3.0.,2016-09-30 05:34:00,
2016-09-30 01:39:00,54.9,46.8,30.39,NNE,30,0.9,4.9,74,0.00,,,0.00,0.00,Weather logger V3.0.,2016-09-30 05:39:00,
2016-09-30 01:44:00,54.7,46.9,30.40,WNW,300,0.0,0.0,75,0.00,,,0.00,0.00,Weather logger V3.0.,2016-09-30 05:44:00,
2016-09-30 01:49:00,54.5,46.8,30.39,ENE,75,3.6,4.9,75,0.00,,,0.00,0.00,Weather logger V3.0.,2016-09-30 05:49:00,
2016-09-30 01:54:00,54.5,46.4,30.39,NNE,23,8.1,9.8,74,0.00,,,0.00,0.00,Weather logger V3.0.,2016-09-30 05:54:00,
2016-09-30 01:59:00,54.5,46.4,30.40,NE,49,1.8,4.9,74,0.00,,,0.00,0.00,Weather logger V3.0.,2016-09-30 05:59:00,
2016-09-30 02:04:00,54.5,46.8,30.38,ENE,71,4.0,4.9,75,0.00,,,0.00,0.00,Weather logger V3.0.,2016-09-30 06:04:00,
2016-09-30 02:09:00,54.5,46.8,30.39,NE,36,4.9,9.8,75,0.00,,,0.00,0.00,Weather logger V3.0.,2016-09-30 06:09:00,
2016-09-30 02:14:00,54.3,46.9,30.39,North,357,0.0,0.0,76,0.00,,,0.00,0.00,Weather logger V3.0.,2016-09-30 06:14:00,
2016-09-30 02:19:00,54.3,46.9,30.38,ESE,118,2.7,4.9,76,0.00,,,0.00,0.00,Weather logger V3.0.,2016-09-30 06:19:00,
2016-09-30 02:24:00,54.3,46.9,30.38,North,356,0.4,4.9,76,0.00,,,0.00,0.00,Weather logger V3.0.,2016-09-30 06:24:00,
2016-09-30 02:29:00,54.3,46.9,30.38,SE,125,2.2,4.9,76,0.00,,,0.00,0.00,Weather logger V3.0.,2016-09-30 06:29:00,
2016-09-30 02:34:00,54.3,47.3,30.38,NE,40,2.7,4.9,77,0.00,,,0.00,0.00,Weather logger V3.0.,2016-09-30 06:34:00,
2016-09-30 02:39:00,54.3,47.3,30.37,NNW,333,0.0,0.0,77,0.00,,,0.00,0.00,Weather logger V3.0.,2016-09-30 06:39:00,
2016-09-30 02:45:00,54.3,47.7,30.38,WNW,292,0.0,0.0,78,0.00,,,0.00,0.00,Weather logger V3.0.,2016-09-30 06:45:00,
2016-09-30 02:50:00,54.3,47.7,30.38,ENE,69,0.0,0.0,78,0.00,,,0.00,0.00,Weather logger V3.0.,2016-09-30 06:50:00,
2016-09-30 02:55:00,54.3,47.7,30.37,SE,145,1.8,4.9,78,0.00,,,0.00,0.00,Weather logger V3.0.,2016-09-30 06:55:00,
2016-09-30 03:00:00,54.3,47.7,30.37,ENE,75,0.0,0.0,78,0.00,,,0.00,0.00,Weather logger V3.0.,2016-09-30 07:00:00,
2016-09-30 03:05:00,54.3,47.7,30.38,South,173,0.4,4.9,78,0.00,,,0.00,0.00,Weather logger V3.0.,2016-09-30 07:05:00,
2016-09-30 03:10:00,54.3,47.7,30.37,NNE,27,0.0,0.0,78,0.00,,,0.00,0.00,Weather logger V3.0.,2016-09-30 07:10:00,
2016-09-30 03:15:00,54.3,47.7,30.37,North,3,4.9,9.8,78,0.00,,,0.00,0.00,Weather logger V3.0.,2016-09-30 07:15:00,
2016-09-30 03:20:00,54.3,47.7,30.37,NE,49,5.4,9.8,78,0.00,,,0.00,0.00,Weather logger V3.0.,2016-09-30 07:20:00,
2016-09-30 03:25:00,54.3,47.7,30.38,East,83,7.2,9.8,78,0.00,,,0.00,0.00,Weather logger V3.0.,2016-09-30 07:25:00,
2016-09-30 03:30:00,54.3,48.0,30.36,ENE,67,0.4,4.9,79,0.00,,,0.00,0.00,Weather logger V3.0.,2016-09-30 07:30:00,
2016-09-30 03:35:00,54.3,48.0,30.37,ESE,113,2.2,4.9,79,0.00,,,0.00,0.00,Weather logger V3.0.,2016-09-30 07:35:00,
2016-09-30 03:40:00,54.3,48.0,30.36,NNE,22,0.4,4.9,79,0.00,,,0.00,0.00,Weather logger V3.0.,2016-09-30 07:40:00,
2016-09-30 03:45:00,54.3,47.7,30.36,NE,35,0.0,0.0,78,0.00,,,0.00,0.00,Weather logger V3.0.,2016-09-30 07:45:00,
2016-09-30 03:50:00,54.3,47.7,30.36,NNW,338,1.8,4.9,78,0.00,,,0.00,0.00,Weather logger V3.0.,2016-09-30 07:50:00,
2016-09-30 03:55:00,54.3,47.7,30.36,North,352,4.9,9.8,78,0.00,,,0.00,0.00,Weather logger V3.0.,2016-09-30 07:55:00,
2016-09-30 04:01:00,54.3,48.0,30.36,NE,37,4.0,4.9,79,0.00,,,0.00,0.00,Weather logger V3.0.,2016-09-30 08:01:00,
2016-09-30 04:06:00,54.3,48.0,30.36,NNE,26,2.7,9.8,79,0.00,,,0.00,0.00,Weather logger V3.0.,2016-09-30 08:06:00,
2016-09-30 04:11:00,54.3,47.7,30.36,NE,51,6.7,9.8,78,0.00,,,0.00,0.00,Weather logger V3.0.,2016-09-30 08:11:00,
2016-09-30 04:16:00,54.3,48.0,30.36,ENE,76,2.7,4.9,79,0.00,,,0.00,0.00,Weather logger V3.0.,2016-09-30 08:16:00,
2016-09-30 04:21:00,54.3,47.7,30.36,East,92,3.6,4.9,78,0.00,,,0.00,0.00,Weather logger V3.0.,2016-09-30 08:21:00,
2016-09-30 04:31:00,54.3,48.0,30.36,ENE,73,1.8,4.9,79,0.00,,,0.00,0.00,Weather logger V3.0.,2016-09-30 08:31:00,
2016-09-30 04:36:00,54.3,48.0,30.36,SSE,168,5.8,9.8,79,0.00,,,0.00,0.00,Weather logger V3.0.,2016-09-30 08:36:00,
2016-09-30 04:41:00,54.3,48.0,30.35,North,352,0.4,4.9,79,0.00,,,0.00,0.00,Weather logger V3.0.,2016-09-30 08:41:00,
2016-09-30 04:46:00,54.3,48.0,30.36,ESE,114,5.8,9.8,79,0.00,,,0.00,0.00,Weather logger V3.0.,2016-09-30 08:46:00,
2016-09-30 04:51:00,54.3,48.0,30.36,NNE,32,3.6,4.9,79,0.00,,,0.00,0.00,Weather logger V3.0.,2016-09-30 08:51:00,
2016-09-30 04:56:00,54.3,48.0,30.37,ENE,59,8.1,9.8,79,0.00,,,0.00,0.00,Weather logger V3.0.,2016-09-30 08:56:00,
2016-09-30 05:01:00,54.3,48.0,30.37,West,281,0.9,4.9,79,0.00,,,0.00,0.00,Weather logger V3.0.,2016-09-30 09:01:00,
2016-09-30 05:06:00,54.3,48.0,30.36,NE,37,1.8,4.9,79,0.00,,,0.00,0.00,Weather logger V3.0.,2016-09-30 09:06:00,
2016-09-30 05:11:00,54.3,48.0,30.36,East,86,0.0,0.0,79,0.00,,,0.00,0.00,Weather logger V3.0.,2016-09-30 09:11:00,
2016-09-30 05:17:00,54.3,48.0,30.35,ENE,63,4.9,9.8,79,0.00,,,0.00,0.00,Weather logger V3.0.,2016-09-30 09:17:00,
2016-09-30 05:22:00,54.3,48.0,30.35,SSE,166,3.6,4.9,79,0.00,,,0.00,0.00,Weather logger V3.0.,2016-09-30 09:22:00,
2016-09-30 05:27:00,54.3,48.0,30.36,NE,48,1.8,4.9,79,0.00,,,0.00,0.00,Weather logger V3.0.,2016-09-30 09:27:00,
2016-09-30 05:32:00,54.3,48.0,30.36,NE,53,2.7,4.9,79,0.00,,,0.00,0.00,Weather logger V3.0.,2016-09-30 09:32:00,
2016-09-30 05:37:00,54.3,48.0,30.36,SW,220,0.4,4.9,79,0.00,,,0.00,0.00,Weather logger V3.0.,2016-09-30 09:37:00,
2016-09-30 05:42:00,54.3,48.0,30.36,ENE,62,1.8,4.9,79,0.00,,,0.00,0.00,Weather logger V3.0.,2016-09-30 09:42:00,
2016-09-30 05:47:00,54.3,48.0,30.37,East,85,10.3,14.8,79,0.00,,,0.00,0.00,Weather logger V3.0.,2016-09-30 09:47:00,
2016-09-30 05:52:00,54.3,48.0,30.36,NW,325,5.8,9.8,79,0.00,,,0.00,0.00,Weather logger V3.0.,2016-09-30 09:52:00,
2016-09-30 05:57:00,54.3,48.0,30.36,South,174,0.4,4.9,79,0.00,,,0.00,0.00,Weather logger V3.0.,2016-09-30 09:57:00,
2016-09-30 06:02:00,54.3,48.0,30.36,SE,130,3.6,4.9,79,0.00,,,0.00,0.00,Weather logger V3.0.,2016-09-30 10:02:00,
2016-09-30 06:07:00,54.3,48.0,30.35,NE,36,0.4,4.9,79,0.00,,,0.00,0.00,Weather logger V3.0.,2016-09-30 10:07:00,
2016-09-30 06:12:00,54.3,48.0,30.35,SW,222,1.8,4.9,79,0.00,,,0.00,0.00,Weather logger V3.0.,2016-09-30 10:12:00,
2016-09-30 06:17:00,54.3,48.0,30.36,NE,34,0.0,0.0,79,0.00,,,0.00,0.00,Weather logger V3.0.,2016-09-30 10:17:00,
2016-09-30 06:22:00,54.3,48.0,30.35,SSW,196,1.8,4.9,79,0.00,,,0.00,0.00,Weather logger V3.0.,2016-09-30 10:22:00,
2016-09-30 06:27:00,54.3,47.7,30.35,NNE,26,0.0,0.0,78,0.00,,,0.00,0.00,Weather logger V3.0.,2016-09-30 10:27:00,
2016-09-30 06:33:00,54.3,47.7,30.35,NNW,344,0.9,4.9,78,0.00,,,0.00,0.00,Weather logger V3.0.,2016-09-30 10:33:00,
2016-09-30 06:38:00,54.3,47.7,30.35,South,179,8.9,14.8,78,0.00,,,0.00,0.00,Weather logger V3.0.,2016-09-30 10:38:00,
2016-09-30 06:43:00,54.3,47.7,30.35,NNE,33,0.9,4.9,78,0.00,,,0.00,0.00,Weather logger V3.0.,2016-09-30 10:43:00,
2016-09-30 06:48:00,54.3,47.7,30.35,East,84,2.7,4.9,78,0.00,,,0.00,0.00,Weather logger V3.0.,2016-09-30 10:48:00,
2016-09-30 06:53:00,54.3,47.7,30.35,NE,50,4.9,4.9,78,0.00,,,0.00,0.00,Weather logger V3.0.,2016-09-30 10:53:00,
2016-09-30 06:58:00,54.3,47.7,30.35,NNW,339,1.8,4.9,78,0.00,,,0.00,0.00,Weather logger V3.0.,2016-09-30 10:58:00,
2016-09-30 07:03:00,54.3,47.7,30.35,NE,49,0.0,0.0,78,0.00,,,0.00,0.00,Weather logger V3.0.,2016-09-30 11:03:00,
2016-09-30 07:08:00,54.3,47.7,30.35,East,98,5.4,9.8,78,0.00,,,0.00,0.00,Weather logger V3.0.,2016-09-30 11:08:00,
2016-09-30 07:13:00,54.3,47.7,30.36,NE,36,0.0,0.0,78,0.00,,,0.00,0.00,Weather logger V3.0.,2016-09-30 11:13:00,
2016-09-30 07:18:00,54.3,47.7,30.36,NNW,341,0.0,0.0,78,0.00,,,0.00,0.00,Weather logger V3.0.,2016-09-30 11:18:00,
2016-09-30 07:23:00,54.3,47.7,30.35,ENE,67,0.9,4.9,78,0.00,,,0.00,0.45,Weather logger V3.0.,2016-09-30 11:23:00,
2016-09-30 07:28:00,54.3,47.7,30.36,North,356,1.8,4.9,78,0.00,,,0.00,1.67,Weather logger V3.0.,2016-09-30 11:28:00,
2016-09-30 07:33:00,54.3,47.7,30.36,East,93,4.0,4.9,78,0.00,,,0.00,2.44,Weather logger V3.0.,2016-09-30 11:33:00,
2016-09-30 07:38:00,54.3,47.7,30.36,NW,309,0.9,4.9,78,0.00,,,0.00,6.06,Weather logger V3.0.,2016-09-30 11:38:00,
2016-09-30 07:43:00,54.3,47.7,30.36,NE,56,8.9,9.8,78,0.00,,,0.00,17.02,Weather logger V3.0.,2016-09-30 11:43:00,
2016-09-30 07:49:00,54.3,48.0,30.36,NNW,348,0.9,4.9,79,0.00,,,0.00,23.38,Weather logger V3.0.,2016-09-30 11:49:00,
2016-09-30 07:54:00,54.3,48.4,30.36,North,10,0.0,0.0,80,0.00,,,0.00,29.74,Weather logger V3.0.,2016-09-30 11:54:00,
2016-09-30 07:59:00,54.3,48.6,30.36,ENE,58,0.0,0.0,81,0.00,,,0.00,34.00,Weather logger V3.0.,2016-09-30 11:59:00,
2016-09-30 08:04:00,54.3,49.3,30.37,WNW,282,8.5,9.8,83,0.00,,,0.00,37.59,Weather logger V3.0.,2016-09-30 12:04:00,
2016-09-30 08:09:00,54.1,49.5,30.35,North,353,0.4,4.9,84,0.00,,,0.00,41.74,Weather logger V3.0.,2016-09-30 12:09:00,
2016-09-30 08:14:00,54.1,49.8,30.36,North,10,0.0,0.0,85,0.00,,,0.00,37.85,Weather logger V3.0.,2016-09-30 12:14:00,
2016-09-30 08:19:00,54.1,50.0,30.36,North,355,2.7,4.9,86,0.00,,,0.00,34.72,Weather logger V3.0.,2016-09-30 12:19:00,
2016-09-30 08:24:00,54.1,49.8,30.36,NNE,17,0.0,0.0,85,0.00,,,0.00,44.10,Weather logger V3.0.,2016-09-30 12:24:00,
2016-09-30 08:30:00,54.1,50.0,30.36,WSW,249,0.0,0.0,86,0.00,,,0.00,48.00,Weather logger V3.0.,2016-09-30 12:30:00,
2016-09-30 08:35:00,54.1,50.0,30.36,NNE,30,2.7,4.9,86,0.00,,,0.00,52.67,Weather logger V3.0.,2016-09-30 12:35:00,
2016-09-30 08:40:00,54.3,50.0,30.36,SE,125,0.4,4.9,85,0.00,,,0.00,49.59,Weather logger V3.0.,2016-09-30 12:40:00,
2016-09-30 08:46:00,54.3,50.0,30.36,North,359,0.0,0.0,85,0.00,,,0.00,48.11,Weather logger V3.0.,2016-09-30 12:46:00,
2016-09-30 08:51:00,54.3,49.6,30.36,ENE,60,2.2,4.9,84,0.00,,,0.00,34.61,Weather logger V3.0.,2016-09-30 12:51:00,
2016-09-30 08:56:00,54.3,49.6,30.36,NNE,14,0.9,4.9,84,0.00,,,0.00,34.36,Weather logger V3.0.,2016-09-30 12:56:00,
2016-09-30 09:01:00,54.3,49.6,30.36,North,7,4.9,9.8,84,0.00,,,0.00,41.44,Weather logger V3.0.,2016-09-30 13:01:00,
2016-09-30 09:06:00,54.3,49.3,30.37,North,4,0.4,4.9,83,0.00,,,0.00,51.80,Weather logger V3.0.,2016-09-30 13:06:00,
2016-09-30 09:11:00,54.3,49.3,30.36,ENE,73,3.6,4.9,83,0.00,,,0.00,67.65,Weather logger V3.0.,2016-09-30 13:11:00,
2016-09-30 09:17:00,54.3,49.3,30.36,NE,50,0.4,4.9,83,0.00,,,0.00,73.40,Weather logger V3.0.,2016-09-30 13:17:00,
2016-09-30 09:22:00,54.3,49.3,30.36,NNE,22,0.0,0.0,83,0.00,,,0.00,88.98,Weather logger V3.0.,2016-09-30 13:22:00,
2016-09-30 09:35:00,54.7,50.0,30.36,ENE,74,4.9,9.8,84,0.00,,,0.00,91.42,Weather logger V3.0.,2016-09-30 13:35:00,
2016-09-30 09:40:00,54.9,50.2,30.36,SSW,197,8.1,9.8,84,0.00,,,0.00,87.60,Weather logger V3.0.,2016-09-30 13:40:00,
2016-09-30 09:45:00,55.0,50.4,30.36,NE,56,2.2,9.8,84,0.00,,,0.00,102.49,Weather logger V3.0.,2016-09-30 13:45:00,
2016-09-30 09:50:00,55.2,50.5,30.37,WSW,245,0.4,4.9,84,0.00,,,0.00,100.57,Weather logger V3.0.,2016-09-30 13:50:00,
2016-09-30 09:55:00,55.4,50.7,30.36,NNE,25,2.7,4.9,84,0.00,,,0.00,100.82,Weather logger V3.0.,2016-09-30 13:55:00,
2016-09-30 10:01:00,55.4,50.7,30.36,ENE,57,3.6,4.9,84,0.00,,,0.00,115.60,Weather logger V3.0.,2016-09-30 14:01:00,
2016-09-30 10:06:00,55.6,50.2,30.36,SSW,212,0.0,0.0,82,0.00,,,0.00,142.10,Weather logger V3.0.,2016-09-30 14:06:00,
2016-09-30 10:11:00,55.8,50.0,30.36,North,7,0.0,0.0,81,0.00,,,0.00,152.52,Weather logger V3.0.,2016-09-30 14:11:00,
2016-09-30 10:16:00,56.1,49.6,30.35,NNW,339,0.0,0.0,79,0.00,,,0.00,156.84,Weather logger V3.0.,2016-09-30 14:16:00,
2016-09-30 10:21:00,56.5,49.8,30.35,NE,40,2.7,4.9,78,0.00,,,0.00,134.29,Weather logger V3.0.,2016-09-30 14:21:00,
2016-09-30 10:26:00,56.8,50.0,30.36,NE,46,2.2,4.9,78,0.00,,,0.00,114.54,Weather logger V3.0.,2016-09-30 14:26:00,
2016-09-30 10:31:00,57.2,50.4,30.34,North,358,0.9,4.9,78,0.00,,,0.00,109.24,Weather logger V3.0.,2016-09-30 14:31:00,
2016-09-30 10:36:00,57.4,50.5,30.35,East,84,1.8,4.9,78,0.00,,,0.00,123.11,Weather logger V3.0.,2016-09-30 14:36:00,
2016-09-30 10:41:00,57.6,50.4,30.34,North,356,0.4,4.9,77,0.00,,,0.00,119.81,Weather logger V3.0.,2016-09-30 14:41:00,
2016-09-30 10:46:00,57.7,50.5,30.35,East,82,0.4,4.9,77,0.00,,,0.00,123.98,Weather logger V3.0.,2016-09-30 14:46:00,
2016-09-30 10:51:00,57.7,50.5,30.35,NNE,16,0.0,0.0,77,0.00,,,0.00,109.46,Weather logger V3.0.,2016-09-30 14:51:00,
2016-09-30 10:57:00,57.9,50.7,30.35,SSE,156,0.4,4.9,77,0.00,,,0.00,119.99,Weather logger V3.0.,2016-09-30 14:57:00,
2016-09-30 11:02:00,58.1,50.5,30.35,South,178,8.5,9.8,76,0.00,,,0.00,116.43,Weather logger V3.0.,2016-09-30 15:02:00,
2016-09-30 11:07:00,58.3,50.7,30.35,North,7,4.9,9.8,76,0.00,,,0.00,135.09,Weather logger V3.0.,2016-09-30 15:07:00,
2016-09-30 11:12:00,58.5,50.5,30.34,SW,220,4.0,4.9,75,0.00,,,0.00,168.68,Weather logger V3.0.,2016-09-30 15:12:00,